Time;durP1;ratioP1;P1;durP2;ratioP2;P2;SDS_P1;SDS_P2;PMS_P1;PMS_P2;Temp;Humidity;BMP_temperature;BMP_pressure;BME280_temperature;BME280_humidity;BME280_pressure;Samples;Min_cycle;Max_cycle;Signal;HPM_P1;HPM_P2
2021/12/23 00:01:58;;;;;;;4.13;3.83;;;16.80;58.20;;;;;;4971825;28;20110;-29
2021/12/23 00:04:24;;;;;;;3.55;3.35;;;16.80;58.30;;;;;;4972756;28;20042;-29
2021/12/23 00:06:49;;;;;;;3.72;3.42;;;16.80;58.20;;;;;;4963801;28;20066;-28
2021/12/23 00:09:15;;;;;;;3.65;3.45;;;16.80;58.30;;;;;;4968825;28;20416;-26
2021/12/23 00:11:41;;;;;;;3.33;3.13;;;16.80;58.40;;;;;;4974692;28;20121;-29
2021/12/23 00:14:09;;;;;;;3.33;3.13;;;16.80;58.30;;;;;;4968460;28;20613;-30
2021/12/23 00:16:46;;;;;;;3.53;3.33;;;16.80;58.10;;;;;;4970962;28;20137;-27
2021/12/23 00:19:33;;;;;;;3.40;3.20;;;16.80;58.30;;;;;;4972828;28;20050;-26
2021/12/23 00:24:43;;;;;;;4.25;3.95;;;16.70;58.20;;;;;;4966626;28;20141;-24
2021/12/23 00:27:09;;;;;;;3.55;3.35;;;16.70;58.20;;;;;;4975124;28;20051;-28
2021/12/23 00:29:34;;;;;;;3.50;3.30;;;16.70;58.30;;;;;;4975632;28;20050;-28
2021/12/23 00:32:04;;;;;;;3.67;3.47;;;16.80;58.30;;;;;;4974732;28;20183;-28
2021/12/23 00:34:29;;;;;;;3.53;3.25;;;16.80;58.30;;;;;;4973876;28;20477;-26
2021/12/23 00:36:57;;;;;;;3.50;3.30;;;16.80;58.30;;;;;;4974406;28;20083;-27
2021/12/23 00:39:23;;;;;;;3.90;3.70;;;16.80;58.10;;;;;;4974373;28;20039;-28
2021/12/23 00:41:49;;;;;;;3.72;3.53;;;16.80;58.00;;;;;;4975477;28;20096;-29
2021/12/23 00:44:15;;;;;;;3.35;3.15;;;16.90;57.90;;;;;;4974211;28;20611;-30
2021/12/23 00:46:40;;;;;;;3.25;3.05;;;16.90;57.90;;;;;;4975163;28;20888;-24
2021/12/23 00:49:06;;;;;;;3.70;3.47;;;16.80;57.80;;;;;;4973854;28;20050;-23
2021/12/23 00:51:33;;;;;;;3.53;3.33;;;16.80;57.90;;;;;;4974404;28;20065;-32
2021/12/23 00:54:04;;;;;;;3.63;3.42;;;16.80;57.90;;;;;;4975116;28;20113;-29
2021/12/23 00:56:34;;;;;;;3.60;3.40;;;16.80;57.80;;;;;;4974657;28;20046;-28
2021/12/23 00:59:00;;;;;;;3.38;3.17;;;16.80;57.90;;;;;;4974411;28;20046;-29
2021/12/23 01:01:25;;;;;;;3.90;3.60;;;16.70;57.90;;;;;;4974142;28;20046;-28
2021/12/23 01:03:51;;;;;;;3.30;3.10;;;16.70;57.90;;;;;;4974856;28;20042;-26
2021/12/23 01:06:17;;;;;;;3.38;3.17;;;16.70;58.00;;;;;;4973944;28;20058;-30
2021/12/23 01:08:42;;;;;;;3.60;3.40;;;16.70;58.10;;;;;;4974716;28;20054;-26
2021/12/23 01:11:09;;;;;;;3.22;3.03;;;16.60;58.20;;;;;;4972819;28;20054;-29
2021/12/23 01:13:37;;;;;;;3.42;3.22;;;16.60;58.10;;;;;;4974004;28;20051;-30
2021/12/23 01:16:08;;;;;;;3.60;3.40;;;16.70;57.90;;;;;;4974541;28;20058;-31
2021/12/23 01:18:43;;;;;;;3.70;3.50;;;16.60;58.00;;;;;;4973967;28;20042;-24
2021/12/23 01:21:18;;;;;;;3.65;3.45;;;16.60;58.00;;;;;;4974112;28;20046;-26
2021/12/23 01:23:53;;;;;;;3.42;3.22;;;16.60;58.10;;;;;;4974857;28;20055;-27
2021/12/23 01:26:22;;;;;;;3.80;3.60;;;16.60;58.00;;;;;;4974217;28;20050;-28
2021/12/23 01:28:50;;;;;;;3.47;3.28;;;16.60;57.90;;;;;;4974362;28;20588;-24
2021/12/23 01:31:16;;;;;;;3.80;3.60;;;16.60;58.00;;;;;;4974147;28;20043;-30
2021/12/23 01:33:41;;;;;;;3.67;3.47;;;16.60;57.90;;;;;;4974669;28;20057;-26
2021/12/23 01:36:07;;;;;;;3.70;3.50;;;16.60;58.00;;;;;;4972442;28;20144;-27
2021/12/23 01:38:33;;;;;;;3.60;3.40;;;16.60;58.00;;;;;;4974694;28;20129;-31
2021/12/23 01:40:59;;;;;;;3.17;2.97;;;16.50;58.10;;;;;;4974852;28;20038;-25
2021/12/23 01:43:24;;;;;;;3.63;3.42;;;16.50;58.10;;;;;;4974172;28;20457;-26
2021/12/23 01:45:50;;;;;;;4.07;3.80;;;16.50;58.00;;;;;;4974385;28;20043;-31
2021/12/23 01:48:16;;;;;;;3.53;3.33;;;16.50;58.10;;;;;;4973435;28;20047;-28
2021/12/23 01:50:42;;;;;;;3.90;3.70;;;16.50;58.10;;;;;;4977467;28;20153;-32
2021/12/23 01:53:08;;;;;;;3.58;3.38;;;16.40;58.10;;;;;;4977567;28;20058;-27
2021/12/23 01:55:35;;;;;;;3.63;3.42;;;16.40;58.00;;;;;;4978097;28;20038;-27
2021/12/23 01:58:00;;;;;;;3.72;3.53;;;16.40;58.00;;;;;;4978578;28;20046;-28
2021/12/23 02:00:28;;;;;;;3.53;3.33;;;16.40;58.00;;;;;;4976962;28;20062;-27
2021/12/23 02:02:53;;;;;;;3.58;3.35;;;16.40;57.90;;;;;;4977295;28;20043;-25
2021/12/23 02:05:19;;;;;;;3.53;3.33;;;16.40;57.90;;;;;;4977533;28;20047;-30
2021/12/23 02:07:45;;;;;;;3.47;3.28;;;16.40;57.90;;;;;;4978046;28;20042;-27
2021/12/23 02:10:11;;;;;;;3.53;3.33;;;16.50;57.80;;;;;;4976778;28;20117;-26
2021/12/23 02:12:36;;;;;;;3.72;3.53;;;16.40;57.90;;;;;;4975276;28;20130;-26
2021/12/23 02:15:03;;;;;;;3.60;3.40;;;16.40;57.80;;;;;;4976721;28;20043;-33
2021/12/23 02:17:28;;;;;;;3.10;2.90;;;16.40;57.80;;;;;;4976814;28;20042;-31
2021/12/23 02:19:54;;;;;;;3.13;2.92;;;16.40;57.90;;;;;;4976340;28;20089;-30
2021/12/23 02:22:20;;;;;;;3.67;3.47;;;16.40;57.70;;;;;;4977332;28;20035;-28
2021/12/23 02:24:45;;;;;;;3.55;3.35;;;16.40;57.70;;;;;;4977139;28;20043;-27
2021/12/23 02:27:11;;;;;;;3.60;3.40;;;16.40;57.70;;;;;;4977111;28;20039;-28
2021/12/23 02:29:37;;;;;;;3.80;3.50;;;16.40;57.70;;;;;;4977498;28;20035;-30
2021/12/23 02:32:03;;;;;;;3.70;3.50;;;16.40;57.70;;;;;;4977642;28;20103;-28
2021/12/23 02:34:29;;;;;;;3.72;3.53;;;16.40;57.60;;;;;;4976519;28;20055;-27
2021/12/23 02:36:56;;;;;;;3.63;3.42;;;16.50;57.70;;;;;;4977490;28;20046;-25
2021/12/23 02:39:22;;;;;;;3.67;3.38;;;16.40;57.60;;;;;;4973268;28;20059;-29
2021/12/23 02:41:48;;;;;;;3.75;3.55;;;16.40;57.60;;;;;;4977231;28;20046;-24
2021/12/23 02:44:14;;;;;;;3.10;2.95;;;16.50;57.70;;;;;;4976903;28;20518;-29
2021/12/23 02:46:39;;;;;;;3.45;3.25;;;16.40;57.60;;;;;;4976628;28;20047;-31
2021/12/23 02:49:05;;;;;;;3.35;3.15;;;16.40;57.60;;;;;;4976758;28;20543;-25
2021/12/23 02:51:30;;;;;;;3.60;3.40;;;16.40;58.20;;;;;;4976496;28;20129;-28
2021/12/23 02:53:56;;;;;;;3.30;3.10;;;16.40;57.60;;;;;;4977284;28;20069;-29
2021/12/23 02:56:22;;;;;;;3.50;3.30;;;16.40;57.70;;;;;;4976594;28;20042;-25
2021/12/23 02:58:47;;;;;;;3.58;3.38;;;16.40;57.70;;;;;;4977019;28;20104;-29
2021/12/23 03:01:14;;;;;;;3.30;3.10;;;16.40;57.70;;;;;;4975588;28;20093;-31
2021/12/23 03:03:39;;;;;;;4.05;3.85;;;16.40;57.70;;;;;;4976844;28;20039;-28
2021/12/23 03:06:05;;;;;;;3.40;3.20;;;16.40;57.60;;;;;;4976605;28;20070;-31
2021/12/23 03:08:37;;;;;;;3.58;3.38;;;16.40;57.60;;;;;;4976078;28;20058;-28
2021/12/23 03:11:04;;;;;;;3.42;3.22;;;16.40;57.60;;;;;;4976678;28;20046;-28
2021/12/23 03:13:30;;;;;;;3.20;3.00;;;16.40;57.70;;;;;;4975757;28;20053;-23
2021/12/23 03:15:56;;;;;;;3.22;3.00;;;16.40;57.60;;;;;;4976555;28;20050;-23
2021/12/23 03:18:21;;;;;;;3.33;3.13;;;16.40;57.70;;;;;;4973892;28;20178;-31
2021/12/23 03:20:47;;;;;;;2.92;2.83;;;16.40;57.70;;;;;;4976492;28;20045;-30
2021/12/23 03:23:12;;;;;;;3.30;3.10;;;16.40;57.70;;;;;;4975952;28;20051;-25
2021/12/23 03:25:38;;;;;;;3.30;3.10;;;16.40;57.70;;;;;;4976377;28;20038;-29
2021/12/23 03:28:04;;;;;;;3.25;3.05;;;16.30;57.70;;;;;;4976323;28;20046;-24
2021/12/23 03:30:29;;;;;;;3.75;3.55;;;16.30;57.90;;;;;;4976118;28;20061;-26
2021/12/23 03:32:55;;;;;;;3.97;3.78;;;16.30;58.00;;;;;;4970760;28;20046;-31
2021/12/23 03:35:21;;;;;;;3.72;3.53;;;16.30;58.10;;;;;;4957242;28;20555;-26
2021/12/23 03:37:46;;;;;;;3.38;3.17;;;16.20;58.10;;;;;;4957836;28;20052;-27
2021/12/23 03:40:12;;;;;;;3.70;3.50;;;16.30;58.00;;;;;;4957873;28;20049;-28
2021/12/23 03:42:39;;;;;;;3.72;3.42;;;16.30;57.90;;;;;;4968120;28;20133;-24
2021/12/23 03:45:07;;;;;;;3.38;3.17;;;16.30;57.90;;;;;;4976119;28;20039;-26
2021/12/23 03:47:33;;;;;;;3.42;3.22;;;16.30;58.10;;;;;;4975515;28;20105;-28
2021/12/23 03:49:59;;;;;;;3.53;3.33;;;16.20;58.10;;;;;;4975536;28;20580;-32
2021/12/23 03:52:25;;;;;;;3.30;3.10;;;16.20;58.20;;;;;;4974643;28;20121;-28
2021/12/23 03:54:50;;;;;;;3.60;3.40;;;16.20;58.30;;;;;;4976149;28;20093;-28
2021/12/23 03:57:16;;;;;;;3.65;3.45;;;16.20;58.30;;;;;;4975058;28;20082;-32
2021/12/23 03:59:42;;;;;;;3.35;3.15;;;16.20;58.30;;;;;;4975933;28;20053;-29
2021/12/23 04:02:07;;;;;;;3.60;3.40;;;16.20;58.20;;;;;;4975900;28;20473;-26
2021/12/23 04:04:33;;;;;;;3.30;3.10;;;16.20;58.20;;;;;;4975138;28;20047;-25
2021/12/23 04:06:59;;;;;;;3.13;2.92;;;16.20;58.00;;;;;;4975644;28;20043;-25
2021/12/23 04:09:24;;;;;;;3.60;3.40;;;16.20;58.20;;;;;;4975039;28;20039;-30
2021/12/23 04:11:50;;;;;;;3.50;3.30;;;16.20;58.20;;;;;;4974445;28;20416;-28
2021/12/23 04:14:15;;;;;;;3.00;2.90;;;16.20;58.20;;;;;;4974753;28;20058;-29
2021/12/23 04:16:41;;;;;;;3.50;3.30;;;16.20;58.30;;;;;;4975615;28;20077;-28
2021/12/23 04:19:09;;;;;;;3.53;3.33;;;16.10;58.30;;;;;;4974142;28;20412;-25
2021/12/23 04:21:35;;;;;;;3.60;3.40;;;16.10;58.20;;;;;;4974289;28;20134;-24
2021/12/23 04:24:01;;;;;;;3.33;3.15;;;16.10;58.30;;;;;;4975329;28;20047;-32
2021/12/23 04:26:26;;;;;;;3.20;3.00;;;16.20;58.40;;;;;;4974818;28;20046;-31
2021/12/23 04:28:52;;;;;;;3.70;3.50;;;16.20;58.50;;;;;;4971627;28;20050;-27
2021/12/23 04:31:20;;;;;;;3.50;3.30;;;16.20;58.50;;;;;;4974659;28;20047;-26
2021/12/23 04:33:46;;;;;;;3.55;3.35;;;16.10;58.50;;;;;;4975249;28;20778;-24
2021/12/23 04:36:12;;;;;;;3.47;3.28;;;16.10;58.50;;;;;;4975034;28;20042;-25
2021/12/23 04:38:38;;;;;;;3.22;3.03;;;16.10;58.40;;;;;;4974693;28;20054;-25
2021/12/23 04:41:04;;;;;;;3.10;2.90;;;16.10;58.40;;;;;;4974719;28;20047;-29
2021/12/23 04:43:30;;;;;;;3.80;3.60;;;16.10;58.40;;;;;;4974269;28;20042;-27
2021/12/23 04:45:55;;;;;;;3.15;2.97;;;16.20;58.40;;;;;;4975236;28;20046;-26
2021/12/23 04:48:21;;;;;;;2.72;2.63;;;16.20;58.40;;;;;;4974142;28;20043;-26
2021/12/23 04:50:46;;;;;;;3.63;3.42;;;16.20;58.40;;;;;;4974624;28;20062;-31
2021/12/23 04:53:12;;;;;;;3.25;3.05;;;16.20;58.40;;;;;;4975679;28;20047;-25
2021/12/23 04:55:38;;;;;;;3.38;3.17;;;16.10;58.30;;;;;;4974567;28;20145;-26
2021/12/23 04:58:03;;;;;;;3.38;3.17;;;16.20;58.20;;;;;;4975174;28;20130;-28
2021/12/23 05:00:29;;;;;;;3.00;2.80;;;16.10;58.30;;;;;;4974061;28;20109;-24
2021/12/23 05:02:54;;;;;;;2.85;2.65;;;16.10;58.40;;;;;;4974668;28;20054;-29
2021/12/23 05:05:20;;;;;;;3.67;3.47;;;16.10;58.70;;;;;;4973991;28;20047;-28
2021/12/23 05:07:46;;;;;;;3.00;2.90;;;16.10;58.70;;;;;;4975747;28;20051;-27
2021/12/23 05:10:12;;;;;;;3.20;3.00;;;16.10;58.70;;;;;;4975013;28;20062;-30
2021/12/23 05:12:43;;;;;;;2.92;2.83;;;16.00;58.60;;;;;;4975081;28;20039;-26
2021/12/23 05:15:17;;;;;;;3.25;3.05;;;16.00;58.80;;;;;;4976012;28;20435;-31
2021/12/23 05:17:42;;;;;;;3.17;3.08;;;16.00;58.90;;;;;;4973925;28;20522;-29
2021/12/23 05:20:09;;;;;;;3.22;3.03;;;16.00;58.90;;;;;;4974994;28;20039;-30
2021/12/23 05:22:35;;;;;;;3.28;3.08;;;16.00;58.80;;;;;;4974363;28;20535;-30
2021/12/23 05:25:00;;;;;;;3.20;3.03;;;16.00;58.90;;;;;;4979153;28;20042;-25
2021/12/23 05:27:26;;;;;;;3.20;3.10;;;16.00;58.80;;;;;;4978041;28;20035;-32
2021/12/23 05:29:52;;;;;;;3.67;3.42;;;16.00;58.80;;;;;;4978779;28;20452;-26
2021/12/23 05:32:17;;;;;;;2.97;2.88;;;16.00;58.80;;;;;;4978334;28;20545;-27
2021/12/23 05:34:43;;;;;;;3.05;2.95;;;16.00;58.80;;;;;;4977814;28;20101;-30
2021/12/23 05:37:08;;;;;;;3.28;3.10;;;16.00;58.80;;;;;;4978703;28;20053;-27
2021/12/23 05:39:35;;;;;;;3.30;3.10;;;16.00;58.90;;;;;;4977978;28;20042;-29
2021/12/23 05:42:00;;;;;;;3.35;3.15;;;16.00;58.80;;;;;;4978031;28;20165;-30
2021/12/23 05:44:26;;;;;;;2.95;2.75;;;16.00;59.00;;;;;;4977348;28;20500;-32
2021/12/23 05:46:52;;;;;;;3.60;3.40;;;16.00;59.00;;;;;;4978006;28;20074;-28
2021/12/23 05:49:17;;;;;;;3.30;3.10;;;16.00;59.00;;;;;;4978006;28;20077;-30
2021/12/23 05:51:43;;;;;;;3.10;2.90;;;15.90;59.00;;;;;;4977457;28;20055;-28
2021/12/23 05:54:08;;;;;;;3.10;2.90;;;16.00;59.00;;;;;;4978687;28;20042;-28
2021/12/23 05:56:34;;;;;;;3.20;3.00;;;16.00;58.90;;;;;;4977725;28;20474;-28
2021/12/23 05:59:00;;;;;;;3.35;3.15;;;16.00;58.80;;;;;;4977512;28;20043;-29
2021/12/23 06:01:25;;;;;;;3.10;2.90;;;16.00;58.80;;;;;;4977039;28;20049;-28
2021/12/23 06:03:51;;;;;;;3.10;3.00;;;16.00;58.90;;;;;;4977767;28;20069;-24
2021/12/23 06:06:16;;;;;;;3.80;3.60;;;15.90;58.90;;;;;;4977886;28;20051;-31
2021/12/23 06:08:43;;;;;;;3.38;3.17;;;15.90;59.00;;;;;;4976460;28;20130;-27
2021/12/23 06:11:08;;;;;;;3.42;3.22;;;15.90;58.90;;;;;;4977063;28;20523;-32
2021/12/23 06:13:34;;;;;;;3.38;3.17;;;15.90;59.10;;;;;;4977113;28;20034;-28
2021/12/23 06:16:00;;;;;;;3.30;3.13;;;15.90;59.10;;;;;;4977394;28;20133;-30
2021/12/23 06:18:25;;;;;;;3.33;3.13;;;15.90;59.10;;;;;;4976371;28;20129;-29
2021/12/23 06:20:51;;;;;;;2.83;2.72;;;15.90;59.80;;;;;;4976571;28;20054;-28
2021/12/23 06:23:17;;;;;;;3.20;3.00;;;15.90;59.30;;;;;;4974493;28;20069;-28
2021/12/23 06:25:42;;;;;;;3.05;2.90;;;16.00;59.30;;;;;;4976418;28;20057;-23
2021/12/23 06:28:08;;;;;;;3.10;2.97;;;15.90;59.30;;;;;;4976640;28;20109;-26
2021/12/23 06:30:34;;;;;;;3.15;2.95;;;15.90;59.20;;;;;;4972579;28;20045;-28
2021/12/23 06:32:59;;;;;;;2.70;2.60;;;15.90;59.30;;;;;;4977218;28;20043;-32
2021/12/23 06:35:28;;;;;;;3.13;2.92;;;15.90;59.40;;;;;;4970483;28;20388;-30
2021/12/23 06:37:53;;;;;;;2.80;2.70;;;15.90;59.50;;;;;;4973175;28;20047;-25
2021/12/23 06:40:19;;;;;;;2.80;2.70;;;15.90;59.30;;;;;;4976753;28;20066;-26
2021/12/23 06:42:45;;;;;;;2.72;2.63;;;16.00;59.30;;;;;;4975709;28;20046;-28
2021/12/23 06:45:10;;;;;;;2.67;2.47;;;15.90;59.30;;;;;;4975384;28;20495;-27
2021/12/23 06:47:36;;;;;;;2.70;2.60;;;15.90;59.30;;;;;;4976020;28;20046;-24
2021/12/23 06:50:06;;;;;;;2.83;2.72;;;15.90;59.30;;;;;;4973525;28;20137;-25
2021/12/23 06:52:32;;;;;;;3.00;2.80;;;15.90;59.40;;;;;;4975335;28;20055;-26
2021/12/23 06:54:58;;;;;;;2.78;2.63;;;15.90;59.40;;;;;;4974861;28;20047;-25
2021/12/23 06:57:25;;;;;;;3.40;3.20;;;15.90;59.40;;;;;;4974524;28;20047;-30
2021/12/23 06:59:51;;;;;;;2.58;2.47;;;15.90;59.40;;;;;;4971742;28;20061;-37
2021/12/23 07:02:17;;;;;;;3.30;3.10;;;15.90;59.30;;;;;;4975481;28;20550;-28
2021/12/23 07:04:44;;;;;;;3.47;3.28;;;15.90;59.40;;;;;;4973826;28;20053;-26
2021/12/23 07:07:25;;;;;;;3.08;2.88;;;15.90;59.40;;;;;;4971954;28;20110;-24
2021/12/23 07:09:50;;;;;;;3.00;2.80;;;15.90;59.40;;;;;;4974798;28;20054;-25
2021/12/23 07:12:16;;;;;;;3.08;2.88;;;15.80;59.40;;;;;;4977430;28;20105;-27
2021/12/23 07:14:41;;;;;;;3.08;2.88;;;15.90;59.50;;;;;;4974796;28;20412;-26
2021/12/23 07:17:07;;;;;;;3.00;2.80;;;15.80;59.40;;;;;;4972926;28;20074;-33
2021/12/23 07:19:34;;;;;;;3.03;2.83;;;15.90;59.50;;;;;;4975753;28;20052;-26
2021/12/23 07:21:59;;;;;;;2.65;2.53;;;15.90;59.30;;;;;;4972651;28;20137;-25
2021/12/23 07:24:25;;;;;;;2.80;2.70;;;15.90;59.30;;;;;;4974033;28;20077;-27
2021/12/23 07:26:50;;;;;;;2.60;2.50;;;15.80;59.40;;;;;;4975555;28;20129;-26
2021/12/23 07:29:16;;;;;;;3.03;2.92;;;15.80;59.40;;;;;;4976955;28;20530;-28
2021/12/23 07:31:42;;;;;;;3.00;2.80;;;15.80;59.40;;;;;;4973976;28;20571;-28
2021/12/23 07:34:07;;;;;;;2.72;2.60;;;15.90;59.40;;;;;;4975882;28;20051;-27
2021/12/23 07:36:34;;;;;;;2.55;2.45;;;15.90;59.40;;;;;;4974497;28;20101;-31
2021/12/23 07:39:00;;;;;;;2.50;2.40;;;15.80;60.10;;;;;;4974138;28;20050;-30
2021/12/23 07:41:29;;;;;;;2.70;2.60;;;15.80;59.50;;;;;;4974685;28;20520;-27
2021/12/23 07:43:59;;;;;;;2.45;2.35;;;15.80;59.60;;;;;;4975281;28;20047;-30
2021/12/23 07:46:26;;;;;;;2.60;2.40;;;15.80;59.60;;;;;;4974549;28;20119;-27
2021/12/23 07:48:51;;;;;;;2.83;2.50;;;15.80;59.60;;;;;;4976843;28;20039;-27
2021/12/23 07:51:17;;;;;;;2.95;2.75;;;15.90;59.60;;;;;;4977296;28;20055;-31
2021/12/23 07:53:43;;;;;;;2.72;2.53;;;15.90;59.30;;;;;;4977200;28;20073;-26
2021/12/23 07:56:08;;;;;;;2.90;2.80;;;15.80;59.40;;;;;;4977631;28;20042;-27
2021/12/23 07:58:34;;;;;;;3.55;3.25;;;15.90;59.10;;;;;;4976576;28;20081;-27
2021/12/23 08:00:59;;;;;;;3.60;3.40;;;15.90;59.10;;;;;;4976543;28;20482;-25
2021/12/23 08:03:25;;;;;;;30.67;18.67;;;15.90;59.50;;;;;;4977154;28;20039;-28
2021/12/23 08:05:52;;;;;;;14.10;9.73;;;15.90;59.10;;;;;;4976197;28;20047;-29
2021/12/23 08:08:18;;;;;;;12.20;9.68;;;15.90;59.40;;;;;;4975885;28;20043;-26
2021/12/23 08:10:44;;;;;;;12.43;10.32;;;16.00;59.90;;;;;;4968430;28;20054;-31
2021/12/23 08:13:09;;;;;;;38.78;20.10;;;16.00;60.30;;;;;;4976041;28;20046;-24
2021/12/23 08:15:35;;;;;;;21.60;13.60;;;16.00;60.10;;;;;;4976431;28;20043;-25
2021/12/23 08:18:00;;;;;;;20.35;13.75;;;16.00;60.40;;;;;;4977224;28;20053;-30
2021/12/23 08:20:26;;;;;;;16.42;11.40;;;16.00;59.80;;;;;;4976722;28;20063;-29
2021/12/23 08:22:52;;;;;;;16.23;11.18;;;16.00;59.90;;;;;;4976463;28;20043;-31
2021/12/23 08:25:17;;;;;;;14.48;10.52;;;16.10;60.10;;;;;;4975878;28;20045;-30
2021/12/23 08:27:43;;;;;;;15.60;11.25;;;16.10;59.90;;;;;;4998123;28;20038;-27
2021/12/23 08:30:12;;;;;;;16.55;11.70;;;16.00;60.00;;;;;;4974619;28;20058;-28
2021/12/23 08:32:38;;;;;;;14.75;10.85;;;16.10;59.80;;;;;;4972766;28;20042;-26
2021/12/23 08:35:04;;;;;;;15.65;10.65;;;16.10;59.70;;;;;;4974190;28;20051;-27
2021/12/23 08:37:30;;;;;;;17.02;11.30;;;16.10;59.80;;;;;;4976485;28;20101;-26
2021/12/23 08:39:55;;;;;;;14.50;10.13;;;16.10;59.80;;;;;;4969395;28;20689;-38
2021/12/23 08:42:21;;;;;;;15.32;10.45;;;16.10;59.70;;;;;;4974202;28;20137;-32
2021/12/23 08:44:47;;;;;;;14.50;10.13;;;16.10;60.20;;;;;;4975435;28;20050;-29
2021/12/23 08:47:13;;;;;;;13.80;10.30;;;16.10;59.80;;;;;;4976324;28;20126;-38
2021/12/23 08:49:41;;;;;;;13.02;9.77;;;16.00;59.80;;;;;;4974506;28;20082;-39
2021/12/23 08:52:06;;;;;;;13.85;9.68;;;16.10;59.90;;;;;;4976443;28;20047;-27
2021/12/23 08:54:32;;;;;;;16.45;9.63;;;16.00;59.90;;;;;;4976037;28;20050;-28
2021/12/23 08:56:57;;;;;;;16.67;10.45;;;16.10;59.90;;;;;;4975480;28;20046;-33
2021/12/23 08:59:23;;;;;;;13.88;9.90;;;16.00;60.10;;;;;;4973640;28;20047;-27
2021/12/23 09:01:49;;;;;;;16.35;9.75;;;16.10;60.20;;;;;;4975822;28;20039;-31
2021/12/23 09:04:14;;;;;;;12.90;9.38;;;16.00;60.20;;;;;;4975821;28;20043;-28
2021/12/23 09:06:40;;;;;;;11.68;8.55;;;16.00;60.50;;;;;;4975328;28;20042;-30
2021/12/23 09:09:07;;;;;;;11.98;8.73;;;16.00;60.50;;;;;;4975595;28;20043;-29
2021/12/23 09:11:33;;;;;;;10.43;8.35;;;16.00;60.50;;;;;;4975333;28;20133;-26
2021/12/23 09:13:59;;;;;;;11.32;8.88;;;16.00;60.70;;;;;;4976046;28;20077;-24
2021/12/23 09:16:24;;;;;;;12.80;8.20;;;16.00;60.70;;;;;;4975757;28;20507;-27
2021/12/23 09:18:50;;;;;;;13.85;8.40;;;16.00;60.70;;;;;;4975095;28;20098;-26
2021/12/23 09:21:15;;;;;;;8.90;7.63;;;16.10;60.50;;;;;;4975532;28;20043;-27
2021/12/23 09:23:42;;;;;;;8.07;7.25;;;16.10;60.50;;;;;;4974174;28;20054;-30
2021/12/23 09:26:10;;;;;;;9.85;7.75;;;16.10;60.30;;;;;;4975526;28;20100;-30
2021/12/23 09:34:24;;;;;;;9.90;7.85;;;16.10;60.10;;;;;;4975675;28;20142;-28
2021/12/23 09:36:50;;;;;;;9.07;7.32;;;16.10;60.30;;;;;;4975592;28;20070;-26
2021/12/23 09:39:15;;;;;;;8.02;6.53;;;16.10;60.20;;;;;;4975151;28;20057;-28
2021/12/23 09:41:42;;;;;;;8.50;7.22;;;16.10;60.10;;;;;;4975245;28;20065;-29
2021/12/23 09:44:09;;;;;;;8.38;7.15;;;16.10;60.10;;;;;;4975879;28;20131;-29
2021/12/23 09:46:35;;;;;;;7.90;6.88;;;16.10;60.90;;;;;;4975430;28;20512;-23
2021/12/23 09:49:01;;;;;;;9.55;7.45;;;16.10;60.00;;;;;;4975878;28;20141;-30
2021/12/23 09:51:28;;;;;;;7.50;6.70;;;16.10;60.10;;;;;;4975374;28;20046;-31
2021/12/23 09:53:59;;;;;;;9.05;7.13;;;16.10;60.20;;;;;;4974280;28;20046;-31
2021/12/23 09:56:26;;;;;;;7.75;7.00;;;16.10;60.40;;;;;;4975509;28;20113;-28
2021/12/23 09:58:51;;;;;;;7.18;6.47;;;16.10;59.80;;;;;;4974531;28;20054;-30
2021/12/23 10:01:17;;;;;;;7.10;6.43;;;16.10;60.00;;;;;;4975356;28;20047;-25
2021/12/23 10:03:43;;;;;;;7.82;6.10;;;16.10;60.10;;;;;;4974356;28;20047;-29
2021/12/23 10:06:09;;;;;;;7.82;6.18;;;16.10;59.70;;;;;;4974683;28;20055;-28
2021/12/23 10:08:35;;;;;;;6.55;5.82;;;16.10;59.60;;;;;;4974493;28;20046;-30
2021/12/23 10:11:12;;;;;;;6.65;5.97;;;16.10;59.70;;;;;;4971061;28;20043;-26
2021/12/23 10:30:51;;;;;;;6.28;5.68;;;16.20;59.60;;;;;;4978474;28;19921;-30
2021/12/23 10:38:35;;;;;;;6.03;5.43;;;16.30;59.40;;;;;;4978278;28;20049;-29
2021/12/23 10:41:18;;;;;;;6.30;5.60;;;16.30;59.40;;;;;;4977510;28;20050;-26
2021/12/23 10:43:58;;;;;;;6.30;5.78;;;16.20;59.40;;;;;;4977695;28;20158;-31
2021/12/23 10:46:26;;;;;;;6.03;5.53;;;16.20;59.50;;;;;;4978716;28;20035;-26
2021/12/23 10:49:14;;;;;;;6.18;5.18;;;16.30;59.40;;;;;;4977975;28;20042;-27
2021/12/23 10:52:15;;;;;;;10.40;8.50;;;16.30;59.60;;;;;;4977877;28;20500;-24
2021/12/23 11:00:15;;;;;;;16.37;9.47;;;16.30;59.20;;;;;;4977640;28;20120;-27
2021/12/23 11:03:02;;;;;;;11.38;8.85;;;16.30;59.00;;;;;;4974955;28;20320;-25
2021/12/23 11:05:33;;;;;;;15.35;9.75;;;16.40;58.70;;;;;;4959119;28;20123;-31
2021/12/23 11:08:16;;;;;;;11.20;9.55;;;16.40;58.70;;;;;;4958322;28;20055;-30
2021/12/23 11:27:32;;;;;;;15.85;9.73;;;16.40;58.50;;;;;;4975403;28;20050;-28
2021/12/23 11:38:32;;;;;;;22.27;12.65;;;16.40;58.90;;;;;;4976888;28;20681;-28
2021/12/23 11:41:03;;;;;;;24.65;12.93;;;16.40;58.80;;;;;;4976504;28;20039;-27
2021/12/23 11:43:47;;;;;;;19.75;12.93;;;16.60;59.70;;;;;;4628672;28;10000615;-26
2021/12/23 11:46:18;;;;;;;23.10;12.85;;;16.70;59.30;;;;;;4975255;28;20042;-26
2021/12/23 11:48:46;;;;;;;18.42;11.05;;;16.80;59.70;;;;;;4975178;28;20046;-27
2021/12/23 11:51:19;;;;;;;18.55;11.05;;;16.80;59.60;;;;;;4975221;28;20578;-33
2021/12/23 11:53:47;;;;;;;19.48;11.82;;;16.90;59.60;;;;;;4973809;28;20082;-28
2021/12/23 11:56:13;;;;;;;18.40;10.80;;;16.90;59.50;;;;;;4973981;28;20050;-31
2021/12/23 11:58:42;;;;;;;16.73;11.38;;;16.90;59.40;;;;;;4972405;28;20496;-26
2021/12/23 12:01:10;;;;;;;18.58;10.35;;;16.90;59.20;;;;;;4971469;28;20074;-31
2021/12/23 12:03:50;;;;;;;15.50;10.02;;;16.90;59.10;;;;;;4969377;28;20454;-26
2021/12/23 12:06:17;;;;;;;15.55;10.63;;;16.90;59.10;;;;;;4967962;28;20566;-30
2021/12/23 12:08:43;;;;;;;16.42;10.35;;;16.90;58.90;;;;;;4972213;28;20133;-26
2021/12/23 12:11:15;;;;;;;17.23;10.98;;;16.90;59.10;;;;;;4973290;28;20134;-25
2021/12/23 12:13:41;;;;;;;22.50;11.00;;;16.90;59.90;;;;;;4973485;28;20042;-32
2021/12/23 12:16:29;;;;;;;17.85;10.85;;;16.90;59.60;;;;;;4970119;28;20113;-26
2021/12/23 12:18:55;;;;;;;17.23;11.73;;;16.90;59.30;;;;;;4969815;28;20043;-28
2021/12/23 12:21:23;;;;;;;16.13;10.48;;;16.90;59.50;;;;;;4971641;28;20133;-38
2021/12/23 12:23:48;;;;;;;12.50;9.57;;;17.00;59.10;;;;;;4970349;28;20051;-23
2021/12/23 12:26:24;;;;;;;16.67;10.38;;;17.00;58.80;;;;;;4973765;28;20055;-26
2021/12/23 12:28:50;;;;;;;14.13;10.00;;;17.00;59.00;;;;;;4968480;28;20122;-26
2021/12/23 12:31:28;;;;;;;15.50;9.90;;;17.00;59.00;;;;;;4976339;28;20073;-24
2021/12/23 12:34:08;;;;;;;18.33;9.90;;;17.00;59.00;;;;;;4971766;28;20054;-30
2021/12/23 12:36:49;;;;;;;14.95;9.20;;;17.00;58.80;;;;;;4971192;28;20109;-31
2021/12/23 12:39:24;;;;;;;14.57;9.88;;;17.00;58.80;;;;;;4972723;28;20500;-30
2021/12/23 12:41:51;;;;;;;14.57;9.95;;;17.00;58.70;;;;;;4970951;28;20416;-27
2021/12/23 12:44:34;;;;;;;13.70;9.55;;;17.00;58.60;;;;;;4971673;28;20823;-26
2021/12/23 12:47:11;;;;;;;13.80;9.60;;;16.90;59.00;;;;;;4972259;28;20142;-27
2021/12/23 12:49:40;;;;;;;12.38;8.98;;;16.80;59.10;;;;;;4969064;28;20046;-28
2021/12/23 12:52:10;;;;;;;12.35;8.98;;;16.80;59.10;;;;;;4958784;28;20059;-34
2021/12/23 12:54:48;;;;;;;12.68;9.38;;;16.80;59.00;;;;;;4967773;28;20042;-26
2021/12/23 12:57:14;;;;;;;12.65;9.13;;;16.80;59.00;;;;;;4977838;28;20170;-27
2021/12/23 12:59:42;;;;;;;13.15;8.65;;;16.80;59.10;;;;;;4979063;28;20123;-32
2021/12/23 13:02:37;;;;;;;12.85;8.25;;;16.70;59.00;;;;;;4972338;28;20097;-29
2021/12/23 13:05:10;;;;;;;11.18;8.93;;;16.80;59.00;;;;;;4959812;28;20213;-25
2021/12/23 13:07:37;;;;;;;8.90;7.90;;;16.80;58.80;;;;;;4977374;28;20051;-27
2021/12/23 13:10:15;;;;;;;10.52;8.20;;;16.80;58.80;;;;;;4972171;28;20274;-28
2021/12/23 13:12:45;;;;;;;15.35;8.85;;;16.80;59.20;;;;;;4963118;28;20101;-28
2021/12/23 13:15:25;;;;;;;10.02;7.95;;;16.80;58.80;;;;;;4968848;28;20054;-24
2021/12/23 13:17:58;;;;;;;12.10;7.80;;;16.80;58.90;;;;;;4967537;28;20170;-28
2021/12/23 13:20:43;;;;;;;8.77;7.05;;;16.80;59.10;;;;;;4964433;28;20721;-25
2021/12/23 13:23:23;;;;;;;10.50;8.40;;;16.80;59.00;;;;;;4971751;28;20051;-30
2021/12/23 13:25:54;;;;;;;10.07;7.68;;;16.90;59.10;;;;;;4971546;28;20547;-29
2021/12/23 13:28:25;;;;;;;9.98;6.90;;;16.90;58.90;;;;;;4972692;28;20058;-33
2021/12/23 13:30:51;;;;;;;7.57;6.72;;;16.80;59.20;;;;;;4973785;28;20139;-27
2021/12/23 13:33:17;;;;;;;10.95;7.38;;;16.80;59.20;;;;;;4972533;28;20587;-31
2021/12/23 13:35:42;;;;;;;10.35;7.68;;;16.90;59.40;;;;;;4971506;28;20065;-25
2021/12/23 13:38:09;;;;;;;8.85;7.00;;;16.90;59.30;;;;;;4970916;28;20141;-24
2021/12/23 13:40:38;;;;;;;10.85;7.90;;;16.80;59.20;;;;;;4974935;28;20050;-27
2021/12/23 13:43:03;;;;;;;10.75;7.82;;;16.80;59.20;;;;;;4970363;28;20042;-30
2021/12/23 13:45:30;;;;;;;8.90;7.45;;;16.80;59.30;;;;;;4970001;28;20050;-30
2021/12/23 13:47:57;;;;;;;9.85;7.03;;;16.80;59.20;;;;;;4974922;28;20064;-29